sensor_id;sensor_type;location;lat;lon;timestamp;P1;durP1;ratioP1;P2;durP2;ratioP2
3601;SDS011;1815;50.950;6.920;2022-11-15T00:00:04;6.90;;;5.80;;
3601;SDS011;1815;50.950;6.920;2022-11-15T00:02:49;6.05;;;5.10;;
3601;SDS011;1815;50.950;6.920;2022-11-15T00:05:36;8.35;;;5.07;;
3601;SDS011;1815;50.950;6.920;2022-11-15T00:08:20;6.63;;;5.45;;
3601;SDS011;1815;50.950;6.920;2022-11-15T00:11:05;8.15;;;4.80;;
3601;SDS011;1815;50.950;6.920;2022-11-15T00:13:55;6.93;;;6.28;;
3601;SDS011;1815;50.950;6.920;2022-11-15T00:16:41;7.53;;;5.95;;
3601;SDS011;1815;50.950;6.920;2022-11-15T00:19:25;6.00;;;5.40;;
3601;SDS011;1815;50.950;6.920;2022-11-15T00:22:10;7.68;;;5.60;;
3601;SDS011;1815;50.950;6.920;2022-11-15T00:24:54;7.68;;;6.50;;
3601;SDS011;1815;50.950;6.920;2022-11-15T00:27:39;6.32;;;5.47;;
3601;SDS011;1815;50.950;6.920;2022-11-15T00:30:23;6.72;;;6.00;;
3601;SDS011;1815;50.950;6.920;2022-11-15T00:33:10;8.65;;;7.78;;
3601;SDS011;1815;50.950;6.920;2022-11-15T00:35:59;6.95;;;6.05;;
3601;SDS011;1815;50.950;6.920;2022-11-15T00:38:48;7.22;;;5.20;;
3601;SDS011;1815;50.950;6.920;2022-11-15T00:41:32;7.93;;;5.75;;
3601;SDS011;1815;50.950;6.920;2022-11-15T00:44:17;5.85;;;5.22;;
3601;SDS011;1815;50.950;6.920;2022-11-15T00:47:01;5.60;;;4.93;;
3601;SDS011;1815;50.950;6.920;2022-11-15T00:49:46;5.13;;;4.63;;
3601;SDS011;1815;50.950;6.920;2022-11-15T00:52:30;9.85;;;5.47;;
3601;SDS011;1815;50.950;6.920;2022-11-15T00:55:17;7.33;;;4.60;;
3601;SDS011;1815;50.950;6.920;2022-11-15T00:58:02;3.97;;;3.58;;
3601;SDS011;1815;50.950;6.920;2022-11-15T01:00:47;5.73;;;4.93;;
3601;SDS011;1815;50.950;6.920;2022-11-15T01:03:32;7.38;;;5.28;;
3601;SDS011;1815;50.950;6.920;2022-11-15T01:06:17;6.43;;;5.20;;
3601;SDS011;1815;50.950;6.920;2022-11-15T01:09:01;5.10;;;4.60;;
3601;SDS011;1815;50.950;6.920;2022-11-15T01:11:46;6.10;;;4.85;;
3601;SDS011;1815;50.950;6.920;2022-11-15T01:14:30;8.50;;;6.07;;
3601;SDS011;1815;50.950;6.920;2022-11-15T01:17:14;5.80;;;4.82;;
3601;SDS011;1815;50.950;6.920;2022-11-15T01:19:59;6.32;;;5.28;;
3601;SDS011;1815;50.950;6.920;2022-11-15T01:22:43;5.97;;;5.38;;
3601;SDS011;1815;50.950;6.920;2022-11-15T01:25:27;8.57;;;6.00;;
3601;SDS011;1815;50.950;6.920;2022-11-15T01:28:12;5.93;;;5.33;;
3601;SDS011;1815;50.950;6.920;2022-11-15T01:31:03;12.52;;;6.60;;
3601;SDS011;1815;50.950;6.920;2022-11-15T01:33:49;7.47;;;4.93;;
3601;SDS011;1815;50.950;6.920;2022-11-15T01:36:34;7.30;;;5.73;;
3601;SDS011;1815;50.950;6.920;2022-11-15T01:39:18;6.20;;;5.30;;
3601;SDS011;1815;50.950;6.920;2022-11-15T01:42:03;7.95;;;6.65;;
3601;SDS011;1815;50.950;6.920;2022-11-15T01:44:48;9.00;;;5.40;;
3601;SDS011;1815;50.950;6.920;2022-11-15T01:47:37;5.18;;;4.63;;
3601;SDS011;1815;50.950;6.920;2022-11-15T01:50:30;5.93;;;5.20;;
3601;SDS011;1815;50.950;6.920;2022-11-15T01:53:16;5.93;;;5.40;;
3601;SDS011;1815;50.950;6.920;2022-11-15T01:56:03;5.50;;;4.87;;
3601;SDS011;1815;50.950;6.920;2022-11-15T01:58:51;5.28;;;4.78;;
3601;SDS011;1815;50.950;6.920;2022-11-15T02:01:38;6.10;;;5.30;;
3601;SDS011;1815;50.950;6.920;2022-11-15T02:04:24;6.03;;;5.20;;
3601;SDS011;1815;50.950;6.920;2022-11-15T02:07:12;5.70;;;5.00;;
3601;SDS011;1815;50.950;6.920;2022-11-15T02:10:02;7.53;;;5.53;;
3601;SDS011;1815;50.950;6.920;2022-11-15T02:12:51;5.33;;;4.80;;
3601;SDS011;1815;50.950;6.920;2022-11-15T02:15:38;5.30;;;4.80;;
3601;SDS011;1815;50.950;6.920;2022-11-15T02:18:32;7.87;;;6.10;;
3601;SDS011;1815;50.950;6.920;2022-11-15T02:27:48;8.13;;;4.87;;
3601;SDS011;1815;50.950;6.920;2022-11-15T02:39:19;6.40;;;5.00;;
3601;SDS011;1815;50.950;6.920;2022-11-15T02:42:26;8.87;;;5.27;;
3601;SDS011;1815;50.950;6.920;2022-11-15T02:45:35;7.03;;;5.40;;
3601;SDS011;1815;50.950;6.920;2022-11-15T02:48:23;6.65;;;5.43;;
3601;SDS011;1815;50.950;6.920;2022-11-15T02:51:09;6.20;;;4.73;;
3601;SDS011;1815;50.950;6.920;2022-11-15T02:53:55;7.20;;;5.87;;
3601;SDS011;1815;50.950;6.920;2022-11-15T02:56:39;4.30;;;3.80;;
3601;SDS011;1815;50.950;6.920;2022-11-15T03:05:44;6.80;;;3.90;;
3601;SDS011;1815;50.950;6.920;2022-11-15T03:11:56;5.73;;;5.07;;
3601;SDS011;1815;50.950;6.920;2022-11-15T03:15:06;4.70;;;4.27;;
3601;SDS011;1815;50.950;6.920;2022-11-15T03:21:15;6.37;;;4.90;;
3601;SDS011;1815;50.950;6.920;2022-11-15T03:24:02;4.90;;;4.43;;
3601;SDS011;1815;50.950;6.920;2022-11-15T03:26:49;6.93;;;5.67;;
3601;SDS011;1815;50.950;6.920;2022-11-15T03:29:38;7.33;;;4.33;;
3601;SDS011;1815;50.950;6.920;2022-11-15T03:32:30;4.23;;;3.67;;
3601;SDS011;1815;50.950;6.920;2022-11-15T03:35:18;3.57;;;3.23;;
3601;SDS011;1815;50.950;6.920;2022-11-15T03:38:11;4.10;;;3.70;;
3601;SDS011;1815;50.950;6.920;2022-11-15T03:41:10;6.40;;;4.47;;
3601;SDS011;1815;50.950;6.920;2022-11-15T03:47:29;5.20;;;4.80;;
3601;SDS011;1815;50.950;6.920;2022-11-15T03:50:19;5.63;;;3.93;;
3601;SDS011;1815;50.950;6.920;2022-11-15T03:53:04;5.53;;;4.20;;
3601;SDS011;1815;50.950;6.920;2022-11-15T03:55:48;4.90;;;4.37;;
3601;SDS011;1815;50.950;6.920;2022-11-15T03:58:33;4.77;;;4.27;;
3601;SDS011;1815;50.950;6.920;2022-11-15T04:01:17;4.63;;;3.40;;
3601;SDS011;1815;50.950;6.920;2022-11-15T04:04:01;4.40;;;4.00;;
3601;SDS011;1815;50.950;6.920;2022-11-15T04:06:45;4.93;;;4.43;;
3601;SDS011;1815;50.950;6.920;2022-11-15T04:09:30;4.13;;;3.67;;
3601;SDS011;1815;50.950;6.920;2022-11-15T04:12:14;5.63;;;4.30;;
3601;SDS011;1815;50.950;6.920;2022-11-15T04:15:15;5.23;;;4.00;;
3601;SDS011;1815;50.950;6.920;2022-11-15T04:18:04;5.20;;;4.17;;
3601;SDS011;1815;50.950;6.920;2022-11-15T04:20:49;4.43;;;3.87;;
3601;SDS011;1815;50.950;6.920;2022-11-15T04:23:52;4.17;;;3.77;;
3601;SDS011;1815;50.950;6.920;2022-11-15T04:26:37;5.27;;;4.13;;
3601;SDS011;1815;50.950;6.920;2022-11-15T04:29:21;4.67;;;4.27;;
3601;SDS011;1815;50.950;6.920;2022-11-15T04:32:18;5.10;;;4.17;;
3601;SDS011;1815;50.950;6.920;2022-11-15T04:35:02;5.50;;;4.97;;
3601;SDS011;1815;50.950;6.920;2022-11-15T04:37:47;4.80;;;4.37;;
3601;SDS011;1815;50.950;6.920;2022-11-15T04:40:31;4.80;;;4.10;;
3601;SDS011;1815;50.950;6.920;2022-11-15T04:43:15;5.40;;;4.90;;
3601;SDS011;1815;50.950;6.920;2022-11-15T04:45:59;4.73;;;4.33;;
3601;SDS011;1815;50.950;6.920;2022-11-15T04:48:45;5.33;;;4.83;;
3601;SDS011;1815;50.950;6.920;2022-11-15T04:51:29;4.63;;;4.13;;
3601;SDS011;1815;50.950;6.920;2022-11-15T04:54:13;8.07;;;4.90;;
3601;SDS011;1815;50.950;6.920;2022-11-15T04:56:57;6.57;;;4.27;;
3601;SDS011;1815;50.950;6.920;2022-11-15T04:59:42;4.70;;;4.30;;
3601;SDS011;1815;50.950;6.920;2022-11-15T05:02:26;4.70;;;3.80;;
3601;SDS011;1815;50.950;6.920;2022-11-15T05:05:30;4.50;;;3.40;;
3601;SDS011;1815;50.950;6.920;2022-11-15T05:08:15;3.77;;;3.40;;
3601;SDS011;1815;50.950;6.920;2022-11-15T05:10:59;5.03;;;3.83;;
3601;SDS011;1815;50.950;6.920;2022-11-15T05:13:43;4.10;;;3.80;;
3601;SDS011;1815;50.950;6.920;2022-11-15T05:16:27;3.90;;;3.60;;
3601;SDS011;1815;50.950;6.920;2022-11-15T05:19:11;3.83;;;3.40;;
3601;SDS011;1815;50.950;6.920;2022-11-15T05:21:56;4.17;;;3.40;;
3601;SDS011;1815;50.950;6.920;2022-11-15T05:24:40;3.80;;;3.50;;
3601;SDS011;1815;50.950;6.920;2022-11-15T05:27:24;3.83;;;3.53;;
3601;SDS011;1815;50.950;6.920;2022-11-15T05:30:09;3.00;;;2.70;;
3601;SDS011;1815;50.950;6.920;2022-11-15T05:32:54;4.40;;;4.00;;
3601;SDS011;1815;50.950;6.920;2022-11-15T05:35:41;3.43;;;3.13;;
3601;SDS011;1815;50.950;6.920;2022-11-15T05:38:29;4.10;;;3.50;;
3601;SDS011;1815;50.950;6.920;2022-11-15T05:41:13;3.80;;;3.03;;
3601;SDS011;1815;50.950;6.920;2022-11-15T05:44:00;4.17;;;3.70;;
3601;SDS011;1815;50.950;6.920;2022-11-15T05:46:46;6.20;;;3.20;;
3601;SDS011;1815;50.950;6.920;2022-11-15T05:49:32;2.80;;;2.13;;
3601;SDS011;1815;50.950;6.920;2022-11-15T05:52:20;3.53;;;3.07;;
3601;SDS011;1815;50.950;6.920;2022-11-15T05:55:08;3.77;;;3.40;;
3601;SDS011;1815;50.950;6.920;2022-11-15T05:57:53;3.43;;;3.13;;
3601;SDS011;1815;50.950;6.920;2022-11-15T06:00:37;3.30;;;2.90;;
3601;SDS011;1815;50.950;6.920;2022-11-15T06:03:22;3.07;;;2.67;;
3601;SDS011;1815;50.950;6.920;2022-11-15T06:06:06;6.50;;;3.23;;
3601;SDS011;1815;50.950;6.920;2022-11-15T06:08:50;3.60;;;3.00;;
3601;SDS011;1815;50.950;6.920;2022-11-15T06:11:34;4.27;;;3.07;;
3601;SDS011;1815;50.950;6.920;2022-11-15T06:14:19;3.27;;;2.97;;
3601;SDS011;1815;50.950;6.920;2022-11-15T06:17:03;4.43;;;3.30;;
3601;SDS011;1815;50.950;6.920;2022-11-15T06:19:48;3.03;;;2.73;;
3601;SDS011;1815;50.950;6.920;2022-11-15T06:22:32;3.40;;;3.10;;
3601;SDS011;1815;50.950;6.920;2022-11-15T06:25:19;3.17;;;2.80;;
3601;SDS011;1815;50.950;6.920;2022-11-15T06:28:04;3.30;;;2.97;;
3601;SDS011;1815;50.950;6.920;2022-11-15T06:30:48;4.53;;;2.90;;
3601;SDS011;1815;50.950;6.920;2022-11-15T06:33:32;3.90;;;3.10;;
3601;SDS011;1815;50.950;6.920;2022-11-15T06:36:17;3.03;;;2.73;;
3601;SDS011;1815;50.950;6.920;2022-11-15T06:39:02;4.33;;;2.70;;
3601;SDS011;1815;50.950;6.920;2022-11-15T06:41:48;3.10;;;2.40;;
3601;SDS011;1815;50.950;6.920;2022-11-15T06:44:32;3.20;;;2.90;;
3601;SDS011;1815;50.950;6.920;2022-11-15T06:47:16;3.27;;;2.47;;
3601;SDS011;1815;50.950;6.920;2022-11-15T06:50:01;5.00;;;2.97;;
3601;SDS011;1815;50.950;6.920;2022-11-15T06:52:45;2.97;;;2.53;;
3601;SDS011;1815;50.950;6.920;2022-11-15T06:55:29;3.63;;;2.97;;
3601;SDS011;1815;50.950;6.920;2022-11-15T06:58:13;4.00;;;3.00;;
3601;SDS011;1815;50.950;6.920;2022-11-15T07:01:00;3.87;;;2.50;;
3601;SDS011;1815;50.950;6.920;2022-11-15T07:03:46;2.87;;;2.40;;
3601;SDS011;1815;50.950;6.920;2022-11-15T07:06:30;2.65;;;2.10;;
3601;SDS011;1815;50.950;6.920;2022-11-15T07:09:15;4.33;;;1.77;;
3601;SDS011;1815;50.950;6.920;2022-11-15T07:12:00;2.85;;;1.83;;
3601;SDS011;1815;50.950;6.920;2022-11-15T07:14:44;2.85;;;2.30;;
3601;SDS011;1815;50.950;6.920;2022-11-15T07:17:29;2.83;;;2.00;;
3601;SDS011;1815;50.950;6.920;2022-11-15T07:20:13;2.40;;;2.00;;
3601;SDS011;1815;50.950;6.920;2022-11-15T07:22:59;3.35;;;2.00;;
3601;SDS011;1815;50.950;6.920;2022-11-15T07:25:46;2.60;;;1.63;;
3601;SDS011;1815;50.950;6.920;2022-11-15T07:28:30;3.55;;;1.80;;
3601;SDS011;1815;50.950;6.920;2022-11-15T07:31:14;2.30;;;1.63;;
3601;SDS011;1815;50.950;6.920;2022-11-15T07:33:58;3.17;;;1.67;;
3601;SDS011;1815;50.950;6.920;2022-11-15T07:36:42;3.03;;;2.10;;
3601;SDS011;1815;50.950;6.920;2022-11-15T07:39:27;3.20;;;2.20;;
3601;SDS011;1815;50.950;6.920;2022-11-15T07:42:11;2.90;;;1.90;;
3601;SDS011;1815;50.950;6.920;2022-11-15T07:45:14;2.53;;;2.03;;
3601;SDS011;1815;50.950;6.920;2022-11-15T07:47:59;3.13;;;2.00;;
3601;SDS011;1815;50.950;6.920;2022-11-15T07:50:44;2.47;;;1.77;;
3601;SDS011;1815;50.950;6.920;2022-11-15T07:53:29;3.13;;;2.07;;
3601;SDS011;1815;50.950;6.920;2022-11-15T07:56:14;3.07;;;1.73;;
3601;SDS011;1815;50.950;6.920;2022-11-15T07:58:58;2.50;;;1.80;;
3601;SDS011;1815;50.950;6.920;2022-11-15T08:01:47;1.90;;;1.40;;
3601;SDS011;1815;50.950;6.920;2022-11-15T08:04:32;2.73;;;1.30;;
3601;SDS011;1815;50.950;6.920;2022-11-15T08:07:16;2.10;;;1.07;;
3601;SDS011;1815;50.950;6.920;2022-11-15T08:10:01;2.17;;;1.00;;
3601;SDS011;1815;50.950;6.920;2022-11-15T08:12:47;2.07;;;0.80;;
3601;SDS011;1815;50.950;6.920;2022-11-15T08:15:32;2.57;;;1.00;;
3601;SDS011;1815;50.950;6.920;2022-11-15T08:18:18;2.70;;;1.07;;
3601;SDS011;1815;50.950;6.920;2022-11-15T08:21:03;1.70;;;0.90;;
3601;SDS011;1815;50.950;6.920;2022-11-15T08:23:47;1.70;;;1.00;;
3601;SDS011;1815;50.950;6.920;2022-11-15T08:26:32;1.90;;;0.90;;
3601;SDS011;1815;50.950;6.920;2022-11-15T08:29:16;3.70;;;1.00;;
3601;SDS011;1815;50.950;6.920;2022-11-15T08:32:01;2.03;;;1.07;;
3601;SDS011;1815;50.950;6.920;2022-11-15T08:34:45;2.27;;;0.80;;
3601;SDS011;1815;50.950;6.920;2022-11-15T08:37:30;1.70;;;0.87;;
3601;SDS011;1815;50.950;6.920;2022-11-15T08:40:15;2.47;;;0.90;;
3601;SDS011;1815;50.950;6.920;2022-11-15T08:42:59;2.57;;;1.00;;
3601;SDS011;1815;50.950;6.920;2022-11-15T08:45:46;2.00;;;1.10;;
3601;SDS011;1815;50.950;6.920;2022-11-15T08:48:30;2.30;;;0.90;;
3601;SDS011;1815;50.950;6.920;2022-11-15T08:51:16;2.07;;;1.03;;
3601;SDS011;1815;50.950;6.920;2022-11-15T08:54:00;2.10;;;1.10;;
3601;SDS011;1815;50.950;6.920;2022-11-15T08:56:44;2.07;;;0.80;;
3601;SDS011;1815;50.950;6.920;2022-11-15T08:59:29;1.53;;;0.70;;
3601;SDS011;1815;50.950;6.920;2022-11-15T09:02:13;2.87;;;0.83;;
3601;SDS011;1815;50.950;6.920;2022-11-15T09:04:59;2.23;;;0.90;;
3601;SDS011;1815;50.950;6.920;2022-11-15T09:07:43;1.80;;;0.80;;
3601;SDS011;1815;50.950;6.920;2022-11-15T09:10:27;2.50;;;0.80;;
3601;SDS011;1815;50.950;6.920;2022-11-15T09:13:11;1.47;;;0.80;;
3601;SDS011;1815;50.950;6.920;2022-11-15T09:15:57;1.80;;;0.80;;
3601;SDS011;1815;50.950;6.920;2022-11-15T09:18:45;3.10;;;0.90;;
3601;SDS011;1815;50.950;6.920;2022-11-15T09:21:29;1.90;;;0.80;;
3601;SDS011;1815;50.950;6.920;2022-11-15T09:24:14;2.37;;;0.80;;
3601;SDS011;1815;50.950;6.920;2022-11-15T09:26:58;1.90;;;0.80;;
3601;SDS011;1815;50.950;6.920;2022-11-15T09:29:43;1.70;;;0.90;;
3601;SDS011;1815;50.950;6.920;2022-11-15T09:32:30;1.40;;;0.70;;
3601;SDS011;1815;50.950;6.920;2022-11-15T09:35:14;3.20;;;0.80;;
3601;SDS011;1815;50.950;6.920;2022-11-15T09:37:58;2.97;;;0.70;;
3601;SDS011;1815;50.950;6.920;2022-11-15T09:40:43;2.27;;;0.80;;
3601;SDS011;1815;50.950;6.920;2022-11-15T09:49:17;2.03;;;0.60;;
3601;SDS011;1815;50.950;6.920;2022-11-15T09:52:07;1.90;;;0.73;;
3601;SDS011;1815;50.950;6.920;2022-11-15T09:54:36;1.50;;;0.60;;
3601;SDS011;1815;50.950;6.920;2022-11-15T09:57:11;2.07;;;0.70;;
3601;SDS011;1815;50.950;6.920;2022-11-15T10:02:33;2.63;;;0.80;;
3601;SDS011;1815;50.950;6.920;2022-11-15T10:05:21;3.40;;;0.93;;
3601;SDS011;1815;50.950;6.920;2022-11-15T10:10:29;1.43;;;0.60;;
3601;SDS011;1815;50.950;6.920;2022-11-15T10:12:56;1.80;;;0.57;;
3601;SDS011;1815;50.950;6.920;2022-11-15T10:15:24;1.67;;;0.70;;
3601;SDS011;1815;50.950;6.920;2022-11-15T10:20:25;2.40;;;0.70;;
3601;SDS011;1815;50.950;6.920;2022-11-15T10:22:58;1.60;;;0.50;;
3601;SDS011;1815;50.950;6.920;2022-11-15T10:25:27;4.60;;;0.80;;
3601;SDS011;1815;50.950;6.920;2022-11-15T10:27:55;5.27;;;1.10;;
3601;SDS011;1815;50.950;6.920;2022-11-15T10:30:35;3.00;;;0.83;;
3601;SDS011;1815;50.950;6.920;2022-11-15T10:33:16;2.30;;;0.60;;
3601;SDS011;1815;50.950;6.920;2022-11-15T10:36:33;2.17;;;0.60;;
3601;SDS011;1815;50.950;6.920;2022-11-15T10:43:44;1.80;;;0.60;;
3601;SDS011;1815;50.950;6.920;2022-11-15T10:46:22;1.40;;;0.50;;
3601;SDS011;1815;50.950;6.920;2022-11-15T10:48:49;1.70;;;0.53;;
3601;SDS011;1815;50.950;6.920;2022-11-15T10:51:33;2.30;;;1.00;;
3601;SDS011;1815;50.950;6.920;2022-11-15T10:54:06;3.03;;;0.77;;
3601;SDS011;1815;50.950;6.920;2022-11-15T10:56:35;1.97;;;0.70;;
3601;SDS011;1815;50.950;6.920;2022-11-15T10:59:01;1.47;;;0.70;;
3601;SDS011;1815;50.950;6.920;2022-11-15T11:01:27;1.93;;;0.67;;
3601;SDS011;1815;50.950;6.920;2022-11-15T11:04:04;2.80;;;0.80;;
3601;SDS011;1815;50.950;6.920;2022-11-15T11:06:51;1.40;;;0.60;;
3601;SDS011;1815;50.950;6.920;2022-11-15T11:11:48;1.60;;;0.70;;
3601;SDS011;1815;50.950;6.920;2022-11-15T11:14:20;1.50;;;0.80;;
3601;SDS011;1815;50.950;6.920;2022-11-15T11:25:34;1.40;;;0.70;;
3601;SDS011;1815;50.950;6.920;2022-11-15T11:33:17;3.27;;;0.60;;
3601;SDS011;1815;50.950;6.920;2022-11-15T11:36:03;2.07;;;0.70;;
3601;SDS011;1815;50.950;6.920;2022-11-15T11:44:34;2.17;;;0.60;;
3601;SDS011;1815;50.950;6.920;2022-11-15T11:47:23;2.13;;;0.70;;
3601;SDS011;1815;50.950;6.920;2022-11-15T11:49:59;2.40;;;0.60;;
3601;SDS011;1815;50.950;6.920;2022-11-15T11:52:40;2.37;;;0.70;;
3601;SDS011;1815;50.950;6.920;2022-11-15T11:55:40;3.23;;;0.53;;
3601;SDS011;1815;50.950;6.920;2022-11-15T12:00:52;2.00;;;0.60;;
3601;SDS011;1815;50.950;6.920;2022-11-15T12:03:34;3.33;;;1.03;;
3601;SDS011;1815;50.950;6.920;2022-11-15T12:14:41;2.17;;;0.80;;
3601;SDS011;1815;50.950;6.920;2022-11-15T12:17:11;5.57;;;0.70;;
3601;SDS011;1815;50.950;6.920;2022-11-15T12:19:38;1.83;;;0.63;;
3601;SDS011;1815;50.950;6.920;2022-11-15T12:24:59;3.60;;;0.50;;
3601;SDS011;1815;50.950;6.920;2022-11-15T12:30:04;1.40;;;0.50;;
3601;SDS011;1815;50.950;6.920;2022-11-15T12:32:37;2.97;;;1.10;;
3601;SDS011;1815;50.950;6.920;2022-11-15T12:35:05;4.00;;;0.73;;
3601;SDS011;1815;50.950;6.920;2022-11-15T12:37:48;1.83;;;0.60;;
3601;SDS011;1815;50.950;6.920;2022-11-15T12:40:23;2.20;;;0.60;;
3601;SDS011;1815;50.950;6.920;2022-11-15T12:45:45;3.37;;;1.77;;
3601;SDS011;1815;50.950;6.920;2022-11-15T13:11:58;1.87;;;0.70;;
3601;SDS011;1815;50.950;6.920;2022-11-15T13:19:53;1.87;;;1.03;;
3601;SDS011;1815;50.950;6.920;2022-11-15T13:22:27;1.50;;;0.67;;
3601;SDS011;1815;50.950;6.920;2022-11-15T13:25:15;4.87;;;0.80;;
3601;SDS011;1815;50.950;6.920;2022-11-15T13:27:48;1.93;;;0.73;;
3601;SDS011;1815;50.950;6.920;2022-11-15T13:30:25;3.47;;;1.43;;
3601;SDS011;1815;50.950;6.920;2022-11-15T13:32:55;2.43;;;1.13;;
3601;SDS011;1815;50.950;6.920;2022-11-15T13:35:28;2.20;;;1.40;;
3601;SDS011;1815;50.950;6.920;2022-11-15T13:37:56;2.60;;;1.13;;
3601;SDS011;1815;50.950;6.920;2022-11-15T13:40:29;4.10;;;1.17;;
3601;SDS011;1815;50.950;6.920;2022-11-15T13:43:15;2.93;;;1.03;;
3601;SDS011;1815;50.950;6.920;2022-11-15T13:48:34;2.53;;;1.00;;
3601;SDS011;1815;50.950;6.920;2022-11-15T13:51:06;6.87;;;1.30;;
3601;SDS011;1815;50.950;6.920;2022-11-15T13:53:41;3.27;;;1.30;;
3601;SDS011;1815;50.950;6.920;2022-11-15T13:56:12;3.40;;;1.17;;
3601;SDS011;1815;50.950;6.920;2022-11-15T13:58:40;1.80;;;1.13;;
3601;SDS011;1815;50.950;6.920;2022-11-15T14:01:05;2.17;;;1.20;;
3601;SDS011;1815;50.950;6.920;2022-11-15T14:03:41;2.23;;;1.33;;
3601;SDS011;1815;50.950;6.920;2022-11-15T14:06:15;2.10;;;1.20;;
3601;SDS011;1815;50.950;6.920;2022-11-15T14:09:14;2.07;;;1.40;;
3601;SDS011;1815;50.950;6.920;2022-11-15T14:11:50;3.17;;;1.43;;
3601;SDS011;1815;50.950;6.920;2022-11-15T14:14:16;3.40;;;1.67;;
3601;SDS011;1815;50.950;6.920;2022-11-15T14:16:47;4.80;;;1.43;;
3601;SDS011;1815;50.950;6.920;2022-11-15T14:24:35;3.97;;;1.37;;
3601;SDS011;1815;50.950;6.920;2022-11-15T14:27:22;3.80;;;1.53;;
3601;SDS011;1815;50.950;6.920;2022-11-15T14:29:52;5.07;;;1.53;;
3601;SDS011;1815;50.950;6.920;2022-11-15T14:32:28;2.00;;;1.10;;
3601;SDS011;1815;50.950;6.920;2022-11-15T14:35:02;4.00;;;1.50;;
3601;SDS011;1815;50.950;6.920;2022-11-15T14:37:32;3.17;;;1.20;;
3601;SDS011;1815;50.950;6.920;2022-11-15T14:40:00;4.17;;;1.30;;
3601;SDS011;1815;50.950;6.920;2022-11-15T14:42:28;3.50;;;1.67;;
3601;SDS011;1815;50.950;6.920;2022-11-15T14:44:54;4.47;;;1.90;;
3601;SDS011;1815;50.950;6.920;2022-11-15T14:47:20;4.50;;;1.43;;
3601;SDS011;1815;50.950;6.920;2022-11-15T14:49:45;4.50;;;1.43;;
3601;SDS011;1815;50.950;6.920;2022-11-15T14:52:30;4.30;;;1.20;;
3601;SDS011;1815;50.950;6.920;2022-11-15T14:55:01;2.20;;;1.43;;
3601;SDS011;1815;50.950;6.920;2022-11-15T14:57:29;2.20;;;1.30;;
3601;SDS011;1815;50.950;6.920;2022-11-15T14:59:55;2.57;;;1.10;;
3601;SDS011;1815;50.950;6.920;2022-11-15T15:02:25;4.30;;;1.23;;
3601;SDS011;1815;50.950;6.920;2022-11-15T15:04:52;2.40;;;1.00;;
3601;SDS011;1815;50.950;6.920;2022-11-15T15:07:18;3.17;;;1.37;;
3601;SDS011;1815;50.950;6.920;2022-11-15T15:09:45;2.60;;;1.30;;
3601;SDS011;1815;50.950;6.920;2022-11-15T15:12:15;2.53;;;1.20;;
3601;SDS011;1815;50.950;6.920;2022-11-15T15:14:45;2.37;;;1.37;;
3601;SDS011;1815;50.950;6.920;2022-11-15T15:17:17;3.67;;;0.90;;
3601;SDS011;1815;50.950;6.920;2022-11-15T15:19:43;4.07;;;1.47;;
3601;SDS011;1815;50.950;6.920;2022-11-15T15:22:11;2.97;;;2.23;;
3601;SDS011;1815;50.950;6.920;2022-11-15T15:24:43;5.37;;;1.37;;
3601;SDS011;1815;50.950;6.920;2022-11-15T15:27:10;3.00;;;1.20;;
3601;SDS011;1815;50.950;6.920;2022-11-15T15:29:36;3.33;;;1.50;;
3601;SDS011;1815;50.950;6.920;2022-11-15T15:32:02;4.00;;;1.00;;
3601;SDS011;1815;50.950;6.920;2022-11-15T15:34:28;2.00;;;0.93;;
3601;SDS011;1815;50.950;6.920;2022-11-15T15:39:53;2.37;;;1.10;;
3601;SDS011;1815;50.950;6.920;2022-11-15T15:42:20;3.30;;;1.60;;
3601;SDS011;1815;50.950;6.920;2022-11-15T15:44:47;3.60;;;1.10;;
3601;SDS011;1815;50.950;6.920;2022-11-15T15:47:14;2.20;;;1.30;;
3601;SDS011;1815;50.950;6.920;2022-11-15T15:49:51;4.63;;;1.10;;
3601;SDS011;1815;50.950;6.920;2022-11-15T15:52:17;3.20;;;1.10;;
3601;SDS011;1815;50.950;6.920;2022-11-15T15:54:43;2.57;;;0.90;;
3601;SDS011;1815;50.950;6.920;2022-11-15T15:57:10;2.53;;;1.03;;
3601;SDS011;1815;50.950;6.920;2022-11-15T15:59:39;3.03;;;1.20;;
3601;SDS011;1815;50.950;6.920;2022-11-15T16:02:12;1.90;;;1.00;;
3601;SDS011;1815;50.950;6.920;2022-11-15T16:04:42;2.30;;;1.83;;
3601;SDS011;1815;50.950;6.920;2022-11-15T16:07:20;1.90;;;1.00;;
3601;SDS011;1815;50.950;6.920;2022-11-15T16:09:49;3.40;;;1.30;;
3601;SDS011;1815;50.950;6.920;2022-11-15T16:12:33;1.93;;;1.00;;
3601;SDS011;1815;50.950;6.920;2022-11-15T16:15:01;1.97;;;1.10;;
3601;SDS011;1815;50.950;6.920;2022-11-15T16:17:38;2.17;;;1.10;;
3601;SDS011;1815;50.950;6.920;2022-11-15T16:20:11;2.87;;;1.20;;
3601;SDS011;1815;50.950;6.920;2022-11-15T16:22:48;2.13;;;1.03;;
3601;SDS011;1815;50.950;6.920;2022-11-15T16:25:14;1.57;;;0.90;;
3601;SDS011;1815;50.950;6.920;2022-11-15T16:27:40;2.13;;;1.37;;
3601;SDS011;1815;50.950;6.920;2022-11-15T16:30:17;2.00;;;0.93;;
3601;SDS011;1815;50.950;6.920;2022-11-15T16:32:48;3.00;;;1.33;;
3601;SDS011;1815;50.950;6.920;2022-11-15T16:35:14;3.30;;;1.10;;
3601;SDS011;1815;50.950;6.920;2022-11-15T16:37:41;2.20;;;1.20;;
3601;SDS011;1815;50.950;6.920;2022-11-15T16:42:55;2.07;;;1.20;;
3601;SDS011;1815;50.950;6.920;2022-11-15T16:45:22;2.43;;;1.20;;
3601;SDS011;1815;50.950;6.920;2022-11-15T16:47:48;1.60;;;1.00;;
3601;SDS011;1815;50.950;6.920;2022-11-15T16:50:35;2.13;;;1.10;;
3601;SDS011;1815;50.950;6.920;2022-11-15T16:53:06;1.60;;;1.00;;
3601;SDS011;1815;50.950;6.920;2022-11-15T16:55:32;5.30;;;1.17;;
3601;SDS011;1815;50.950;6.920;2022-11-15T16:57:57;3.73;;;1.17;;
3601;SDS011;1815;50.950;6.920;2022-11-15T17:00:23;2.40;;;1.37;;
3601;SDS011;1815;50.950;6.920;2022-11-15T17:02:50;4.70;;;2.50;;
3601;SDS011;1815;50.950;6.920;2022-11-15T17:05:17;3.80;;;2.90;;
3601;SDS011;1815;50.950;6.920;2022-11-15T17:07:48;3.40;;;2.30;;
3601;SDS011;1815;50.950;6.920;2022-11-15T17:10:18;4.17;;;1.80;;
3601;SDS011;1815;50.950;6.920;2022-11-15T17:12:48;5.63;;;2.83;;
3601;SDS011;1815;50.950;6.920;2022-11-15T17:15:15;6.53;;;3.30;;
3601;SDS011;1815;50.950;6.920;2022-11-15T17:17:41;4.03;;;2.63;;
3601;SDS011;1815;50.950;6.920;2022-11-15T17:20:12;5.40;;;2.37;;
3601;SDS011;1815;50.950;6.920;2022-11-15T17:22:40;3.77;;;1.60;;
3601;SDS011;1815;50.950;6.920;2022-11-15T17:25:06;2.80;;;1.93;;
3601;SDS011;1815;50.950;6.920;2022-11-15T17:27:31;2.33;;;1.47;;
3601;SDS011;1815;50.950;6.920;2022-11-15T17:29:57;2.70;;;1.30;;
3601;SDS011;1815;50.950;6.920;2022-11-15T17:32:23;2.97;;;1.60;;
3601;SDS011;1815;50.950;6.920;2022-11-15T17:34:49;2.00;;;1.30;;
3601;SDS011;1815;50.950;6.920;2022-11-15T17:37:14;2.40;;;1.23;;
3601;SDS011;1815;50.950;6.920;2022-11-15T17:39:40;2.63;;;1.40;;
3601;SDS011;1815;50.950;6.920;2022-11-15T17:42:06;2.80;;;1.80;;
3601;SDS011;1815;50.950;6.920;2022-11-15T17:44:32;4.17;;;2.40;;
3601;SDS011;1815;50.950;6.920;2022-11-15T17:46:57;1.90;;;1.10;;
3601;SDS011;1815;50.950;6.920;2022-11-15T17:49:23;2.77;;;1.40;;
3601;SDS011;1815;50.950;6.920;2022-11-15T17:51:49;3.17;;;1.73;;
3601;SDS011;1815;50.950;6.920;2022-11-15T17:54:15;2.67;;;1.97;;
3601;SDS011;1815;50.950;6.920;2022-11-15T17:56:41;2.37;;;1.50;;
3601;SDS011;1815;50.950;6.920;2022-11-15T17:59:07;3.50;;;1.20;;
3601;SDS011;1815;50.950;6.920;2022-11-15T18:01:33;5.77;;;1.37;;
3601;SDS011;1815;50.950;6.920;2022-11-15T18:04:01;2.03;;;1.33;;
3601;SDS011;1815;50.950;6.920;2022-11-15T18:06:32;3.20;;;1.57;;
3601;SDS011;1815;50.950;6.920;2022-11-15T18:08:59;2.70;;;1.60;;
3601;SDS011;1815;50.950;6.920;2022-11-15T18:11:27;2.77;;;1.50;;
3601;SDS011;1815;50.950;6.920;2022-11-15T18:13:56;5.97;;;4.50;;
3601;SDS011;1815;50.950;6.920;2022-11-15T18:16:24;5.87;;;2.70;;
3601;SDS011;1815;50.950;6.920;2022-11-15T18:18:51;3.73;;;2.30;;
3601;SDS011;1815;50.950;6.920;2022-11-15T18:21:18;3.10;;;1.80;;
3601;SDS011;1815;50.950;6.920;2022-11-15T18:23:45;5.90;;;3.00;;
3601;SDS011;1815;50.950;6.920;2022-11-15T18:26:13;5.40;;;2.73;;
3601;SDS011;1815;50.950;6.920;2022-11-15T18:28:41;4.53;;;3.20;;
3601;SDS011;1815;50.950;6.920;2022-11-15T18:31:16;4.57;;;3.50;;
3601;SDS011;1815;50.950;6.920;2022-11-15T18:33:50;3.93;;;2.77;;
3601;SDS011;1815;50.950;6.920;2022-11-15T18:36:20;5.43;;;2.57;;
3601;SDS011;1815;50.950;6.920;2022-11-15T18:38:52;2.13;;;1.60;;
3601;SDS011;1815;50.950;6.920;2022-11-15T18:41:22;3.20;;;2.10;;
3601;SDS011;1815;50.950;6.920;2022-11-15T18:43:52;3.60;;;2.37;;